createdAt,value
2023-05-07T00:01:27.720Z,16.10
2023-05-07T00:03:48.244Z,16.67
2023-05-07T00:05:49.940Z,15.95
2023-05-07T00:07:54.337Z,15.65
2023-05-07T00:09:55.831Z,16.17
2023-05-07T00:12:00.781Z,15.13
2023-05-07T00:14:05.170Z,11.90
2023-05-07T00:16:06.854Z,13.82
2023-05-07T00:18:11.470Z,15.05
2023-05-07T00:20:16.584Z,13.43
2023-05-07T00:22:22.443Z,14.77
2023-05-07T00:24:26.727Z,14.18
2023-05-07T00:26:31.041Z,14.45
2023-05-07T00:28:35.578Z,13.40
2023-05-07T00:30:37.133Z,13.43
2023-05-07T00:32:39.164Z,15.48
2023-05-07T00:34:44.030Z,13.32
2023-05-07T00:36:45.559Z,14.95
2023-05-07T00:38:46.965Z,14.73
2023-05-07T00:40:48.433Z,14.63
2023-05-07T00:42:59.218Z,15.98
2023-05-07T00:45:03.917Z,14.98
2023-05-07T00:47:09.951Z,14.38
2023-05-07T00:49:13.756Z,14.38
2023-05-07T00:51:18.805Z,13.95
2023-05-07T00:53:22.867Z,13.38
2023-05-07T00:55:26.080Z,14.45
2023-05-07T00:57:28.047Z,17.15
2023-05-07T00:59:29.657Z,12.43
2023-05-07T01:01:49.855Z,12.93
2023-05-07T01:03:54.551Z,12.88
2023-05-07T01:05:59.292Z,12.90
2023-05-07T01:08:06.869Z,13.25
2023-05-07T01:10:09.879Z,12.93
2023-05-07T01:12:11.888Z,13.07
2023-05-07T01:14:13.437Z,13.32
2023-05-07T01:16:14.855Z,13.23
2023-05-07T01:18:16.617Z,13.23
2023-05-07T01:20:20.937Z,13.63
2023-05-07T01:24:28.360Z,13.48
2023-05-07T01:26:31.627Z,13.63
2023-05-07T01:28:52.697Z,13.18
2023-05-07T01:31:03.398Z,13.27
2023-05-07T01:33:09.256Z,14.20
2023-05-07T01:35:14.172Z,13.48
2023-05-07T01:37:17.617Z,13.27
2023-05-07T01:39:28.181Z,14.88
2023-05-07T01:41:33.070Z,12.40
2023-05-07T01:43:36.345Z,15.20
2023-05-07T01:45:42.631Z,15.95
2023-05-07T01:47:47.590Z,15.48
2023-05-07T01:49:50.790Z,15.77
2023-05-07T01:51:55.131Z,15.15
2023-05-07T01:53:56.621Z,14.73
2023-05-07T01:58:05.613Z,16.45
2023-05-07T02:00:25.981Z,14.48
2023-05-07T02:02:28.400Z,15.18
2023-05-07T02:04:34.129Z,16.05
2023-05-07T02:06:36.674Z,13.43
2023-05-07T02:08:45.964Z,15.60
2023-05-07T02:10:52.476Z,14.25
2023-05-07T02:12:56.504Z,14.05
2023-05-07T02:15:00.834Z,15.48
2023-05-07T02:17:04.017Z,15.07
2023-05-07T02:19:09.322Z,12.88
2023-05-07T02:21:31.101Z,14.57
2023-05-07T02:23:33.302Z,14.32
2023-05-07T02:25:37.440Z,13.52
2023-05-07T02:27:41.632Z,13.68
2023-05-07T02:29:47.262Z,14.02
2023-05-07T02:31:54.543Z,13.45
2023-05-07T02:34:02.204Z,12.13
2023-05-07T02:36:08.010Z,15.05
2023-05-07T02:38:12.429Z,14.32
2023-05-07T02:40:20.883Z,14.15
2023-05-07T02:42:28.783Z,13.52
2023-05-07T02:44:32.422Z,13.02
2023-05-07T02:46:38.659Z,13.25
2023-05-07T02:48:41.640Z,12.50
2023-05-07T02:50:44.095Z,12.85
2023-05-07T02:52:46.100Z,13.52
2023-05-07T02:54:48.163Z,13.40
2023-05-07T02:56:51.781Z,13.38
2023-05-07T02:58:58.136Z,14.02
2023-05-07T03:01:00.785Z,13.43
2023-05-07T03:03:04.357Z,12.97
2023-05-07T03:05:06.976Z,13.50
2023-05-07T03:07:11.092Z,14.18
2023-05-07T03:09:18.981Z,14.48
2023-05-07T03:11:23.025Z,13.82
2023-05-07T03:13:24.926Z,13.77
2023-05-07T03:15:27.590Z,14.23
2023-05-07T03:17:48.293Z,15.02
2023-05-07T03:19:50.866Z,15.77
2023-05-07T03:21:55.304Z,14.73
2023-05-07T03:23:56.834Z,15.85
2023-05-07T03:25:58.543Z,15.27
2023-05-07T03:28:02.939Z,17.25
2023-05-07T03:30:08.818Z,17.73
2023-05-07T03:32:13.318Z,16.90
2023-05-07T03:34:14.785Z,16.08
2023-05-07T03:36:16.215Z,19.10
2023-05-07T03:38:17.684Z,18.20
2023-05-07T03:40:20.750Z,19.25
2023-05-07T03:42:27.003Z,19.08
2023-05-07T03:44:48.513Z,19.17
2023-05-07T03:46:52.087Z,19.60
2023-05-07T03:48:53.876Z,19.00
2023-05-07T03:50:58.589Z,19.83
2023-05-07T03:53:05.033Z,21.45
2023-05-07T03:55:07.422Z,20.98
2023-05-07T03:57:08.970Z,21.33
2023-05-07T03:59:10.489Z,20.63
2023-05-07T04:01:12.458Z,20.67
2023-05-07T04:03:13.966Z,20.45
2023-05-07T04:05:18.542Z,21.15
2023-05-07T04:07:22.894Z,22.42
2023-05-07T04:09:24.314Z,20.38
2023-05-07T04:11:26.121Z,20.13
2023-05-07T04:13:27.552Z,20.27
2023-05-07T04:17:36.071Z,20.63
2023-05-07T04:19:37.795Z,19.90
2023-05-07T04:21:42.162Z,21.23
2023-05-07T04:23:43.817Z,20.38
2023-05-07T04:25:46.233Z,19.92
2023-05-07T04:27:47.647Z,20.45
2023-05-07T04:29:50.814Z,19.50
2023-05-07T04:31:58.436Z,19.58
2023-05-07T04:34:03.172Z,19.50
2023-05-07T04:36:08.349Z,20.27
2023-05-07T04:38:09.881Z,20.52
2023-05-07T04:40:14.501Z,21.00
2023-05-07T04:42:16.664Z,20.50
2023-05-07T04:44:18.439Z,20.30
2023-05-07T04:46:19.955Z,20.33
2023-05-07T04:48:24.540Z,19.13
2023-05-07T04:50:26.894Z,21.77
2023-05-07T04:52:46.720Z,20.60
2023-05-07T04:54:51.348Z,20.48
2023-05-07T04:56:52.960Z,19.80
2023-05-07T04:58:57.163Z,19.58
2023-05-07T05:00:59.360Z,21.30
2023-05-07T05:03:03.511Z,20.25
2023-05-07T05:05:08.307Z,22.13
2023-05-07T05:07:12.684Z,19.35
2023-05-07T05:11:21.851Z,20.38
2023-05-07T05:13:23.496Z,19.17
2023-05-07T05:15:27.568Z,20.08
2023-05-07T05:17:31.936Z,18.67
2023-05-07T05:19:51.968Z,19.80
2023-05-07T05:21:56.129Z,18.50
2023-05-07T05:23:57.515Z,18.58
2023-05-07T05:25:59.296Z,17.77
2023-05-07T05:28:00.735Z,17.58
2023-05-07T05:30:21.390Z,16.77
2023-05-07T05:32:24.585Z,18.08
2023-05-07T05:34:29.117Z,16.83
2023-05-07T05:36:31.665Z,16.90
2023-05-07T05:38:35.741Z,17.70
2023-05-07T05:40:40.252Z,17.60
2023-05-07T05:42:44.344Z,19.00
2023-05-07T05:44:52.813Z,19.67
2023-05-07T05:46:57.599Z,22.45
2023-05-07T05:49:17.902Z,19.88
2023-05-07T05:51:19.475Z,22.83
2023-05-07T05:55:25.057Z,22.80
2023-05-07T05:57:28.009Z,23.65
2023-05-07T05:59:30.841Z,24.63
2023-05-07T06:01:35.294Z,25.92
2023-05-07T06:03:39.982Z,25.25
2023-05-07T06:05:41.652Z,26.10
2023-05-07T06:07:43.331Z,27.88
2023-05-07T06:09:45.262Z,27.55
2023-05-07T06:11:49.625Z,28.05
2023-05-07T06:13:51.120Z,27.20
2023-05-07T06:15:55.604Z,27.80
2023-05-07T06:17:58.610Z,26.77
2023-05-07T06:20:00.275Z,25.95
2023-05-07T06:22:05.097Z,26.48
2023-05-07T06:24:07.318Z,28.15
2023-05-07T06:26:11.391Z,27.05
2023-05-07T06:28:36.692Z,27.17
2023-05-07T06:30:41.443Z,25.08
2023-05-07T06:32:42.907Z,26.60
2023-05-07T06:34:44.353Z,27.52
2023-05-07T06:36:48.482Z,27.83
2023-05-07T06:38:50.236Z,26.25
2023-05-07T06:40:51.720Z,28.35
2023-05-07T06:42:53.231Z,28.23
2023-05-07T06:44:57.367Z,27.30
2023-05-07T06:47:01.892Z,26.20
2023-05-07T06:49:06.177Z,25.70
2023-05-07T06:51:07.577Z,26.38
2023-05-07T06:53:12.056Z,26.38
2023-05-07T06:55:13.471Z,25.00
2023-05-07T06:57:14.944Z,25.55
2023-05-07T06:59:16.721Z,22.92
2023-05-07T07:01:18.203Z,21.10
2023-05-07T07:03:19.640Z,22.67
2023-05-07T07:05:21.100Z,23.88
2023-05-07T07:07:40.883Z,22.27
2023-05-07T07:09:42.353Z,21.73
2023-05-07T07:13:48.155Z,20.48
2023-05-07T07:15:52.701Z,22.67
2023-05-07T07:17:54.159Z,24.55
2023-05-07T07:19:55.691Z,25.42
2023-05-07T07:21:59.882Z,24.70
2023-05-07T07:24:03.997Z,24.55
2023-05-07T07:26:07.014Z,23.65
2023-05-07T07:28:08.528Z,25.13
2023-05-07T07:30:13.277Z,23.90
2023-05-07T07:32:18.007Z,23.83
2023-05-07T07:34:22.220Z,23.63
2023-05-07T07:36:35.398Z,25.27
2023-05-07T07:38:46.839Z,23.17
2023-05-07T07:40:48.569Z,24.35
2023-05-07T07:42:53.112Z,21.98
2023-05-07T07:44:58.199Z,21.30
2023-05-07T07:46:59.646Z,20.42
2023-05-07T07:49:19.789Z,19.70
2023-05-07T07:51:21.474Z,19.20
2023-05-07T07:53:22.938Z,21.10
2023-05-07T07:55:24.463Z,22.05
2023-05-07T07:57:25.941Z,21.88
2023-05-07T07:59:31.303Z,22.95
2023-05-07T08:01:35.442Z,23.10
2023-05-07T08:03:37.297Z,21.83
2023-05-07T08:05:57.741Z,24.92
2023-05-07T08:10:03.520Z,22.60
2023-05-07T08:12:23.499Z,20.95
2023-05-07T08:14:25.105Z,23.35
2023-05-07T08:16:26.666Z,20.10
2023-05-07T08:18:31.315Z,22.17
2023-05-07T08:20:32.782Z,23.70
2023-05-07T08:22:53.142Z,22.48
2023-05-07T08:25:13.053Z,20.83
2023-05-07T08:27:17.191Z,19.85
2023-05-07T08:29:18.653Z,21.88
2023-05-07T08:31:22.867Z,18.90
2023-05-07T08:33:24.323Z,18.02
2023-05-07T08:35:28.991Z,16.90
2023-05-07T08:37:33.053Z,21.10
2023-05-07T08:39:37.193Z,21.45
2023-05-07T08:41:41.571Z,21.17
2023-05-07T08:43:48.141Z,21.00
2023-05-07T08:45:54.376Z,22.67
2023-05-07T08:47:59.360Z,21.85
2023-05-07T08:50:01.415Z,23.10
2023-05-07T08:52:04.884Z,20.80
2023-05-07T08:54:08.144Z,21.70
2023-05-07T08:56:17.181Z,20.40
2023-05-07T08:58:20.106Z,19.50
2023-05-07T09:00:29.665Z,20.88
2023-05-07T09:02:33.480Z,19.70
2023-05-07T09:04:55.332Z,21.15
2023-05-07T09:07:06.302Z,21.15
2023-05-07T09:09:16.701Z,20.33
2023-05-07T09:11:21.985Z,19.17
2023-05-07T09:13:27.049Z,20.30
2023-05-07T09:15:30.636Z,19.55
2023-05-07T09:17:32.485Z,18.02
2023-05-07T09:19:38.382Z,15.10
2023-05-07T09:21:44.390Z,15.63
2023-05-07T09:23:53.792Z,16.08
2023-05-07T09:26:02.818Z,15.27
2023-05-07T09:28:09.334Z,15.85
2023-05-07T09:30:14.088Z,14.88
2023-05-07T09:32:19.278Z,15.45
2023-05-07T09:34:23.961Z,13.98
2023-05-07T09:36:28.592Z,16.02
2023-05-07T09:38:34.828Z,14.82
2023-05-07T09:40:39.703Z,15.23
2023-05-07T09:42:43.909Z,16.15
2023-05-07T09:44:48.312Z,13.93
2023-05-07T09:46:54.944Z,15.00
2023-05-07T09:48:59.779Z,15.65
2023-05-07T09:51:03.935Z,13.90
2023-05-07T09:53:24.233Z,15.38
2023-05-07T09:55:28.545Z,13.95
2023-05-07T09:57:33.602Z,14.55
2023-05-07T09:59:35.637Z,13.68
2023-05-07T10:01:37.239Z,13.95
2023-05-07T10:03:43.423Z,13.75
2023-05-07T10:05:48.461Z,14.40
2023-05-07T10:07:53.865Z,13.13
2023-05-07T10:10:14.030Z,12.90
2023-05-07T10:12:16.091Z,11.38
2023-05-07T10:14:18.377Z,13.57
2023-05-07T10:16:20.159Z,11.63
2023-05-07T10:18:41.330Z,12.13
2023-05-07T10:20:47.158Z,12.55
2023-05-07T10:23:08.004Z,12.43
2023-05-07T10:25:19.248Z,12.23
2023-05-07T10:27:21.833Z,12.23
2023-05-07T10:29:56.601Z,12.65
2023-05-07T10:32:01.251Z,11.60
2023-05-07T10:34:04.034Z,12.75
2023-05-07T10:36:08.988Z,10.00
2023-05-07T10:38:13.857Z,10.82
2023-05-07T10:40:20.457Z,11.25
2023-05-07T10:44:26.901Z,10.85
2023-05-07T10:46:34.093Z,9.63
2023-05-07T10:48:37.325Z,10.35
2023-05-07T10:50:45.234Z,8.32
2023-05-07T10:53:09.203Z,9.25
2023-05-07T10:55:13.694Z,10.50
2023-05-07T10:57:33.234Z,9.93
2023-05-07T10:59:42.822Z,9.10
2023-05-07T11:01:57.101Z,8.48
2023-05-07T11:06:11.011Z,7.53
2023-05-07T11:08:15.352Z,8.32
2023-05-07T11:10:16.816Z,7.07
2023-05-07T11:12:18.852Z,6.38
2023-05-07T11:14:39.149Z,6.63
2023-05-07T11:16:44.373Z,6.25
2023-05-07T11:18:53.146Z,6.35
2023-05-07T11:20:55.883Z,6.03
2023-05-07T11:22:58.159Z,5.90
2023-05-07T11:25:06.756Z,5.80
2023-05-07T11:27:08.543Z,5.68
2023-05-07T11:29:14.094Z,6.45
2023-05-07T11:31:21.732Z,6.07
2023-05-07T11:33:23.561Z,6.57
2023-05-07T11:35:44.162Z,5.75
2023-05-07T11:37:45.991Z,5.53
2023-05-07T11:39:50.716Z,5.50
2023-05-07T11:41:55.049Z,5.53
2023-05-07T11:43:57.292Z,5.82
2023-05-07T11:46:09.657Z,5.78
2023-05-07T11:48:11.252Z,5.45
2023-05-07T11:50:12.871Z,5.13
2023-05-07T11:52:14.404Z,6.55
2023-05-07T11:54:19.034Z,5.88
2023-05-07T11:56:23.198Z,5.30
2023-05-07T11:58:25.584Z,5.47
2023-05-07T12:00:27.057Z,5.05
2023-05-07T12:02:32.503Z,5.88
2023-05-07T12:04:47.881Z,4.80
2023-05-07T12:07:21.838Z,5.80
2023-05-07T12:09:54.959Z,4.63
2023-05-07T12:12:25.329Z,4.60
2023-05-07T12:14:52.252Z,4.70
2023-05-07T12:17:20.624Z,6.00
2023-05-07T12:19:46.918Z,4.65
2023-05-07T12:22:18.161Z,5.10
2023-05-07T12:24:49.176Z,4.55
2023-05-07T12:27:31.768Z,5.10
2023-05-07T12:30:03.284Z,4.35
2023-05-07T12:32:44.376Z,5.32
2023-05-07T12:35:23.611Z,4.10
2023-05-07T12:37:56.310Z,4.15
2023-05-07T12:40:09.243Z,3.80
2023-05-07T12:42:15.842Z,3.20
2023-05-07T12:44:17.545Z,3.67
2023-05-07T12:46:19.676Z,3.08
2023-05-07T12:48:22.019Z,3.60
2023-05-07T12:50:26.090Z,3.83
2023-05-07T12:52:31.322Z,3.30
2023-05-07T12:54:37.961Z,3.20
2023-05-07T12:56:45.498Z,2.92
2023-05-07T12:58:49.975Z,3.75
2023-05-07T13:01:00.874Z,3.05
2023-05-07T13:03:05.889Z,2.65
2023-05-07T13:05:10.321Z,2.70
2023-05-07T13:07:12.149Z,2.53
2023-05-07T13:09:32.461Z,3.45
2023-05-07T13:11:36.546Z,2.88
2023-05-07T13:13:38.626Z,2.47
2023-05-07T13:15:40.336Z,2.45
2023-05-07T13:17:41.846Z,2.30
2023-05-07T13:19:43.433Z,1.75
2023-05-07T13:21:47.753Z,2.45
2023-05-07T13:23:49.195Z,2.00
2023-05-07T13:25:54.992Z,2.00
2023-05-07T13:28:09.537Z,1.75
2023-05-07T13:30:15.077Z,1.92
2023-05-07T13:32:19.086Z,2.20
2023-05-07T13:34:20.586Z,2.05
2023-05-07T13:36:24.891Z,2.28
2023-05-07T13:38:29.137Z,2.20
2023-05-07T13:40:33.531Z,1.73
2023-05-07T13:42:35.038Z,1.88
2023-05-07T13:44:36.752Z,1.48
2023-05-07T13:46:38.330Z,2.25
2023-05-07T13:48:42.901Z,2.03
2023-05-07T13:50:44.382Z,1.27
2023-05-07T13:52:51.740Z,2.28
2023-05-07T13:54:53.487Z,1.10
2023-05-07T13:56:54.921Z,1.45
2023-05-07T13:59:00.432Z,1.65
2023-05-07T14:01:05.465Z,1.92
2023-05-07T14:03:07.301Z,1.30
2023-05-07T14:05:10.258Z,1.83
2023-05-07T14:07:11.971Z,1.48
2023-05-07T14:09:16.046Z,1.92
2023-05-07T14:11:17.631Z,1.38
2023-05-07T14:13:21.786Z,1.13
2023-05-07T14:15:23.267Z,1.08
2023-05-07T14:17:26.473Z,1.40
2023-05-07T14:19:28.012Z,1.10
2023-05-07T14:21:32.515Z,0.88
2023-05-07T14:23:33.965Z,0.73
2023-05-07T14:25:38.095Z,1.58
2023-05-07T14:27:42.394Z,1.27
2023-05-07T14:29:44.160Z,1.48
2023-05-07T14:31:46.184Z,1.30
2023-05-07T14:33:47.700Z,0.95
2023-05-07T14:35:50.328Z,0.77
2023-05-07T14:37:51.744Z,0.98
2023-05-07T14:39:56.071Z,1.30
2023-05-07T14:41:58.402Z,1.13
2023-05-07T14:44:04.941Z,0.93
2023-05-07T14:46:06.522Z,1.60
2023-05-07T14:48:16.003Z,1.20
2023-05-07T14:50:20.624Z,1.25
2023-05-07T14:52:25.102Z,0.98
2023-05-07T14:54:26.649Z,1.08
2023-05-07T14:56:30.874Z,657.63
2023-05-07T14:58:32.483Z,734.77
2023-05-07T15:00:34.608Z,610.10
2023-05-07T15:02:37.826Z,598.70
2023-05-07T15:04:47.931Z,553.63
2023-05-07T15:06:51.223Z,577.13
2023-05-07T15:08:54.773Z,544.20
2023-05-07T15:11:01.084Z,552.77
2023-05-07T15:13:04.406Z,536.55
2023-05-07T15:15:11.288Z,539.00
2023-05-07T15:17:16.882Z,582.63
2023-05-07T15:19:24.064Z,556.70
2023-05-07T15:21:30.113Z,557.13
2023-05-07T15:23:33.700Z,541.45
2023-05-07T15:25:37.946Z,511.35
2023-05-07T15:27:41.874Z,505.73
2023-05-07T15:32:07.099Z,465.07
2023-05-07T15:34:13.962Z,501.47
2023-05-07T15:36:18.905Z,482.67
2023-05-07T15:38:20.716Z,498.87
2023-05-07T15:40:25.273Z,513.37
2023-05-07T15:42:29.694Z,539.77
2023-05-07T15:44:34.818Z,576.57
2023-05-07T15:46:37.230Z,593.17
2023-05-07T15:48:41.644Z,590.73
2023-05-07T15:50:43.313Z,594.63
2023-05-07T15:52:47.226Z,644.50
2023-05-07T15:54:51.393Z,647.63
2023-05-07T15:56:52.871Z,626.87
2023-05-07T15:58:54.360Z,635.27
2023-05-07T16:00:58.444Z,597.90
2023-05-07T16:03:00.155Z,580.77
2023-05-07T16:05:01.757Z,565.07
2023-05-07T16:07:03.996Z,545.83
2023-05-07T16:09:10.162Z,523.43
2023-05-07T16:11:11.823Z,521.35
2023-05-07T16:13:19.241Z,511.63
2023-05-07T16:15:21.094Z,494.97
2023-05-07T16:17:22.763Z,513.63
2023-05-07T16:19:24.302Z,558.47
2023-05-07T16:21:25.790Z,553.47
2023-05-07T16:23:27.555Z,525.53
2023-05-07T16:25:29.066Z,505.50
2023-05-07T16:27:33.448Z,507.73
2023-05-07T16:29:37.981Z,462.30
2023-05-07T16:31:39.791Z,438.03
2023-05-07T16:33:44.287Z,459.23
2023-05-07T16:35:52.033Z,471.27
2023-05-07T16:37:53.486Z,463.43
2023-05-07T16:39:59.749Z,462.03
2023-05-07T16:42:04.359Z,437.67
2023-05-07T16:44:24.235Z,413.23
2023-05-07T16:46:26.405Z,424.63
2023-05-07T16:48:28.017Z,432.77
2023-05-07T16:50:48.171Z,425.33
2023-05-07T16:52:52.297Z,420.40
2023-05-07T16:55:00.719Z,420.37
2023-05-07T16:57:05.002Z,399.53
2023-05-07T16:59:25.353Z,393.43
2023-05-07T17:01:27.239Z,396.90
2023-05-07T17:03:32.221Z,402.70
2023-05-07T17:05:33.896Z,385.53
2023-05-07T17:07:35.481Z,370.00
2023-05-07T17:09:39.749Z,362.57
2023-05-07T17:11:41.197Z,351.33
2023-05-07T17:13:45.706Z,341.77
2023-05-07T17:15:47.769Z,336.30
2023-05-07T17:17:49.513Z,336.13
2023-05-07T17:19:51.017Z,322.60
2023-05-07T17:21:52.517Z,323.10
2023-05-07T17:23:56.682Z,322.03
2023-05-07T17:26:01.134Z,321.83
2023-05-07T17:28:05.679Z,311.27
2023-05-07T17:30:07.454Z,313.60
2023-05-07T17:32:08.939Z,310.83
2023-05-07T17:34:14.271Z,311.87
2023-05-07T17:36:18.684Z,306.10
2023-05-07T17:38:22.721Z,305.83
2023-05-07T17:40:29.503Z,303.13
2023-05-07T17:42:32.067Z,296.20
2023-05-07T17:44:33.913Z,301.87
2023-05-07T17:46:35.452Z,297.53
2023-05-07T17:48:37.039Z,294.40
2023-05-07T17:50:41.322Z,291.77
2023-05-07T17:52:42.763Z,290.40
2023-05-07T17:54:47.116Z,284.53
2023-05-07T17:56:51.506Z,286.87
2023-05-07T17:58:59.280Z,282.67
2023-05-07T18:01:01.084Z,284.40
2023-05-07T18:03:05.384Z,274.47
2023-05-07T18:05:07.736Z,270.57
2023-05-07T18:07:27.772Z,267.93
2023-05-07T18:09:29.256Z,265.67
2023-05-07T18:11:49.142Z,260.87
2023-05-07T18:13:54.734Z,252.97
2023-05-07T18:15:58.282Z,247.82
2023-05-07T18:18:01.900Z,239.30
2023-05-07T18:20:09.922Z,235.40
2023-05-07T18:22:16.057Z,234.80
2023-05-07T18:24:22.423Z,229.20
2023-05-07T18:26:26.172Z,222.95
2023-05-07T18:28:32.623Z,224.53
2023-05-07T18:30:38.865Z,221.40
2023-05-07T18:33:00.507Z,216.03
2023-05-07T18:35:06.435Z,206.37
2023-05-07T18:37:12.051Z,208.93
2023-05-07T18:39:33.790Z,211.30
2023-05-07T18:41:39.655Z,207.13
2023-05-07T18:44:01.364Z,203.87
2023-05-07T18:46:03.458Z,198.20
2023-05-07T18:48:06.567Z,205.23
2023-05-07T18:50:08.598Z,201.77
2023-05-07T18:52:12.710Z,194.13
2023-05-07T18:54:17.217Z,193.17
2023-05-07T18:56:19.231Z,189.00
2023-05-07T18:58:24.149Z,186.13
2023-05-07T19:00:25.652Z,185.20
2023-05-07T19:02:27.278Z,182.27
2023-05-07T19:04:30.282Z,183.43
2023-05-07T19:06:50.470Z,185.23
2023-05-07T19:08:51.972Z,182.37
2023-05-07T19:10:55.625Z,180.93
2023-05-07T19:13:15.847Z,173.80
2023-05-07T19:15:17.341Z,170.60
2023-05-07T19:17:18.800Z,167.97
2023-05-07T19:19:20.410Z,161.03
2023-05-07T19:21:21.816Z,157.87
2023-05-07T19:23:26.050Z,150.77
2023-05-07T19:25:27.522Z,112.03
2023-05-07T19:27:31.642Z,5.60
2023-05-07T19:29:33.141Z,140.43
2023-05-07T19:31:53.300Z,99.47
2023-05-07T19:33:57.919Z,96.83
2023-05-07T19:35:59.990Z,128.33
2023-05-07T19:38:05.617Z,136.23
2023-05-07T19:40:10.263Z,96.30
2023-05-07T19:42:11.741Z,129.80
2023-05-07T19:44:16.380Z,93.40
2023-05-07T19:46:20.923Z,89.23
2023-05-07T19:48:25.222Z,117.00
2023-05-07T19:50:26.653Z,2.93
2023-05-07T19:52:31.000Z,3.07
2023-05-07T19:54:32.523Z,2.77
2023-05-07T19:56:52.708Z,5.83
2023-05-07T19:58:56.723Z,3.53
2023-05-07T20:01:03.980Z,3.50
2023-05-07T20:03:08.738Z,3.70
2023-05-07T20:05:13.874Z,3.63
2023-05-07T20:07:17.981Z,3.87
2023-05-07T20:09:19.412Z,3.80
2023-05-07T20:11:23.989Z,5.57
2023-05-07T20:13:27.020Z,4.13
2023-05-07T20:15:31.430Z,4.13
2023-05-07T20:17:32.912Z,4.40
2023-05-07T20:19:37.203Z,3.57
2023-05-07T20:21:41.491Z,3.60
2023-05-07T20:23:45.851Z,3.33
2023-05-07T20:25:48.016Z,4.70
2023-05-07T20:27:49.476Z,3.30
2023-05-07T20:31:58.277Z,3.25
2023-05-07T20:34:18.149Z,3.37
2023-05-07T20:36:19.584Z,5.73
2023-05-07T20:38:21.240Z,3.07
2023-05-07T20:40:25.621Z,6.43
2023-05-07T20:42:29.737Z,3.20
2023-05-07T20:44:32.606Z,3.40
2023-05-07T20:46:34.504Z,4.20
2023-05-07T20:48:35.970Z,3.50
2023-05-07T20:52:41.669Z,3.37
2023-05-07T20:54:44.544Z,4.33
2023-05-07T20:56:46.231Z,3.30
2023-05-07T20:58:50.529Z,3.73
2023-05-07T21:00:55.595Z,4.07
2023-05-07T21:02:57.181Z,3.00
2023-05-07T21:04:58.701Z,3.70
2023-05-07T21:07:00.525Z,4.13
2023-05-07T21:09:04.820Z,3.60
2023-05-07T21:11:08.669Z,3.37
2023-05-07T21:13:14.982Z,4.13
2023-05-07T21:15:25.181Z,4.00
2023-05-07T21:17:53.577Z,3.73
2023-05-07T21:22:31.128Z,3.90
2023-05-07T21:24:45.271Z,3.60
2023-05-07T21:26:51.156Z,3.37
2023-05-07T21:28:59.581Z,4.37
2023-05-07T21:31:27.298Z,4.45
2023-05-07T21:33:37.447Z,4.30
2023-05-07T21:35:48.381Z,3.20
2023-05-07T21:38:02.873Z,3.25
2023-05-07T21:40:16.989Z,3.00
2023-05-07T21:42:30.376Z,3.35
2023-05-07T21:44:42.785Z,2.77
2023-05-07T21:46:46.273Z,2.90
2023-05-07T21:48:47.944Z,2.60
2023-05-07T21:51:01.401Z,3.00
2023-05-07T21:53:21.559Z,3.50
2023-05-07T21:55:23.083Z,3.80
2023-05-07T21:57:24.598Z,3.90
2023-05-07T21:59:26.034Z,3.57
2023-05-07T22:01:27.496Z,3.50
2023-05-07T22:03:31.902Z,3.60
2023-05-07T22:05:33.401Z,4.03
2023-05-07T22:07:53.421Z,3.50
2023-05-07T22:09:57.677Z,2.70
2023-05-07T22:12:02.052Z,3.53
2023-05-07T22:14:22.236Z,2.63
2023-05-07T22:16:23.758Z,3.33
2023-05-07T22:18:25.641Z,2.30
2023-05-07T22:20:27.206Z,2.50
2023-05-07T22:24:35.528Z,3.10
2023-05-07T22:26:39.857Z,3.20
2023-05-07T22:28:41.424Z,3.27
2023-05-07T22:30:45.759Z,2.77
2023-05-07T22:32:47.420Z,2.33
2023-05-07T22:34:51.432Z,2.27
2023-05-07T22:36:52.870Z,2.60
2023-05-07T22:38:54.325Z,2.30
2023-05-07T22:41:14.469Z,2.27
2023-05-07T22:43:16.016Z,2.40
2023-05-07T22:45:17.576Z,2.50
2023-05-07T22:47:19.006Z,2.63
2023-05-07T22:49:20.460Z,2.57
2023-05-07T22:51:22.044Z,2.87
2023-05-07T22:53:26.492Z,2.57
2023-05-07T22:55:30.821Z,3.17
2023-05-07T22:57:35.266Z,2.27
2023-05-07T22:59:55.809Z,2.77
2023-05-07T23:01:57.755Z,2.60
2023-05-07T23:04:01.946Z,2.63
2023-05-07T23:06:06.386Z,2.70
2023-05-07T23:08:07.831Z,2.37
2023-05-07T23:10:09.520Z,3.10
2023-05-07T23:12:11.037Z,2.23
2023-05-07T23:14:15.867Z,2.03
2023-05-07T23:16:17.363Z,2.30
2023-05-07T23:18:19.034Z,2.43
2023-05-07T23:20:23.485Z,2.17
2023-05-07T23:22:43.466Z,2.07
2023-05-07T23:24:45.003Z,2.53
2023-05-07T23:26:46.638Z,2.03
2023-05-07T23:28:48.178Z,2.60
2023-05-07T23:30:52.677Z,2.60
2023-05-07T23:32:54.232Z,2.60
2023-05-07T23:34:58.956Z,2.37
2023-05-07T23:37:08.384Z,2.37
2023-05-07T23:39:10.533Z,2.53
2023-05-07T23:41:17.640Z,2.30
2023-05-07T23:43:22.069Z,2.77
2023-05-07T23:45:23.481Z,2.53
2023-05-07T23:47:25.078Z,3.13
2023-05-07T23:49:29.570Z,2.77
2023-05-07T23:51:31.364Z,2.93
2023-05-07T23:53:51.718Z,2.30
2023-05-07T23:57:59.921Z,2.60
